sensor_id;sensor_type;location;lat;lon;timestamp;temperature;humidity
41220;DHT22;26951;47.338;9.196;2024-02-26T00:01:16;6.10;25.70
41220;DHT22;26951;47.338;9.196;2024-02-26T00:04:00;6.20;28.20
41220;DHT22;26951;47.338;9.196;2024-02-26T00:06:46;6.20;27.60
41220;DHT22;26951;47.338;9.196;2024-02-26T00:09:30;6.20;26.00
41220;DHT22;26951;47.338;9.196;2024-02-26T00:12:14;6.30;25.50
41220;DHT22;26951;47.338;9.196;2024-02-26T00:14:58;6.30;26.30
41220;DHT22;26951;47.338;9.196;2024-02-26T00:17:42;6.40;26.20
41220;DHT22;26951;47.338;9.196;2024-02-26T00:20:26;6.40;27.00
41220;DHT22;26951;47.338;9.196;2024-02-26T00:23:10;6.40;27.00
41220;DHT22;26951;47.338;9.196;2024-02-26T00:25:55;6.40;26.30
41220;DHT22;26951;47.338;9.196;2024-02-26T00:28:39;6.40;26.20
41220;DHT22;26951;47.338;9.196;2024-02-26T00:31:23;6.50;25.30
41220;DHT22;26951;47.338;9.196;2024-02-26T00:34:07;6.50;26.90
41220;DHT22;26951;47.338;9.196;2024-02-26T00:36:51;6.60;24.50
41220;DHT22;26951;47.338;9.196;2024-02-26T00:39:35;6.60;25.40
41220;DHT22;26951;47.338;9.196;2024-02-26T00:42:20;6.60;26.80
41220;DHT22;26951;47.338;9.196;2024-02-26T00:45:04;6.60;28.10
41220;DHT22;26951;47.338;9.196;2024-02-26T00:47:48;6.60;27.10
41220;DHT22;26951;47.338;9.196;2024-02-26T00:50:36;6.60;25.90
41220;DHT22;26951;47.338;9.196;2024-02-26T00:53:20;6.70;27.80
41220;DHT22;26951;47.338;9.196;2024-02-26T00:56:04;6.70;28.30
41220;DHT22;26951;47.338;9.196;2024-02-26T00:58:49;6.70;31.50
41220;DHT22;26951;47.338;9.196;2024-02-26T01:01:33;6.60;32.90
41220;DHT22;26951;47.338;9.196;2024-02-26T01:04:17;6.60;33.00
41220;DHT22;26951;47.338;9.196;2024-02-26T01:07:01;6.50;35.40
41220;DHT22;26951;47.338;9.196;2024-02-26T01:09:45;6.50;36.30
41220;DHT22;26951;47.338;9.196;2024-02-26T01:12:29;6.40;36.20
41220;DHT22;26951;47.338;9.196;2024-02-26T01:15:13;6.40;35.10
41220;DHT22;26951;47.338;9.196;2024-02-26T01:17:58;6.30;36.50
41220;DHT22;26951;47.338;9.196;2024-02-26T01:20:42;6.30;36.10
41220;DHT22;26951;47.338;9.196;2024-02-26T01:23:26;6.20;37.40
41220;DHT22;26951;47.338;9.196;2024-02-26T01:26:10;6.10;37.10
41220;DHT22;26951;47.338;9.196;2024-02-26T01:28:55;6.20;33.80
41220;DHT22;26951;47.338;9.196;2024-02-26T01:31:39;6.10;35.00
41220;DHT22;26951;47.338;9.196;2024-02-26T01:34:23;6.10;34.80
41220;DHT22;26951;47.338;9.196;2024-02-26T01:37:07;6.10;36.00
41220;DHT22;26951;47.338;9.196;2024-02-26T01:39:52;6.10;35.30
41220;DHT22;26951;47.338;9.196;2024-02-26T01:42:38;6.10;35.20
41220;DHT22;26951;47.338;9.196;2024-02-26T01:45:22;6.10;35.70
41220;DHT22;26951;47.338;9.196;2024-02-26T01:48:08;6.10;35.30
41220;DHT22;26951;47.338;9.196;2024-02-26T01:50:54;6.10;33.70
41220;DHT22;26951;47.338;9.196;2024-02-26T01:53:38;6.10;35.50
41220;DHT22;26951;47.338;9.196;2024-02-26T01:56:22;6.10;34.80
41220;DHT22;26951;47.338;9.196;2024-02-26T01:59:12;6.10;35.30
41220;DHT22;26951;47.338;9.196;2024-02-26T02:04:24;6.10;36.40
41220;DHT22;26951;47.338;9.196;2024-02-26T02:07:09;6.10;37.90
41220;DHT22;26951;47.338;9.196;2024-02-26T02:09:53;6.10;35.70
41220;DHT22;26951;47.338;9.196;2024-02-26T02:12:37;6.10;35.70
41220;DHT22;26951;47.338;9.196;2024-02-26T02:15:24;6.10;36.10
41220;DHT22;26951;47.338;9.196;2024-02-26T02:18:08;6.10;37.50
41220;DHT22;26951;47.338;9.196;2024-02-26T02:20:53;6.00;37.30
41220;DHT22;26951;47.338;9.196;2024-02-26T02:23:37;6.00;38.00
41220;DHT22;26951;47.338;9.196;2024-02-26T02:26:22;6.00;38.20
41220;DHT22;26951;47.338;9.196;2024-02-26T02:29:07;5.90;37.30
41220;DHT22;26951;47.338;9.196;2024-02-26T02:31:51;6.00;37.70
41220;DHT22;26951;47.338;9.196;2024-02-26T02:34:35;5.90;36.70
41220;DHT22;26951;47.338;9.196;2024-02-26T02:37:19;5.90;36.90
41220;DHT22;26951;47.338;9.196;2024-02-26T02:40:04;5.90;38.30
41220;DHT22;26951;47.338;9.196;2024-02-26T02:42:49;5.90;39.40
41220;DHT22;26951;47.338;9.196;2024-02-26T02:45:33;5.90;39.30
41220;DHT22;26951;47.338;9.196;2024-02-26T02:48:17;5.90;39.10
41220;DHT22;26951;47.338;9.196;2024-02-26T02:51:01;5.90;38.30
41220;DHT22;26951;47.338;9.196;2024-02-26T02:53:45;5.90;32.20
41220;DHT22;26951;47.338;9.196;2024-02-26T02:56:29;5.90;32.70
41220;DHT22;26951;47.338;9.196;2024-02-26T02:59:14;5.90;35.10
41220;DHT22;26951;47.338;9.196;2024-02-26T03:01:58;5.90;34.20
41220;DHT22;26951;47.338;9.196;2024-02-26T03:04:42;6.00;36.20
41220;DHT22;26951;47.338;9.196;2024-02-26T03:07:26;6.00;35.80
41220;DHT22;26951;47.338;9.196;2024-02-26T03:10:10;6.00;34.10
41220;DHT22;26951;47.338;9.196;2024-02-26T03:12:54;5.90;34.40
41220;DHT22;26951;47.338;9.196;2024-02-26T03:15:39;5.90;36.30
41220;DHT22;26951;47.338;9.196;2024-02-26T03:18:23;5.90;35.50
41220;DHT22;26951;47.338;9.196;2024-02-26T03:21:07;5.90;37.10
41220;DHT22;26951;47.338;9.196;2024-02-26T03:23:51;5.90;37.70
41220;DHT22;26951;47.338;9.196;2024-02-26T03:26:36;5.90;33.90
41220;DHT22;26951;47.338;9.196;2024-02-26T03:29:20;5.80;33.30
41220;DHT22;26951;47.338;9.196;2024-02-26T03:32:05;5.90;34.00
41220;DHT22;26951;47.338;9.196;2024-02-26T03:34:49;5.80;32.00
41220;DHT22;26951;47.338;9.196;2024-02-26T03:37:33;5.90;31.50
41220;DHT22;26951;47.338;9.196;2024-02-26T03:40:17;5.80;31.60
41220;DHT22;26951;47.338;9.196;2024-02-26T03:43:03;5.90;32.60
41220;DHT22;26951;47.338;9.196;2024-02-26T03:45:49;5.80;31.40
41220;DHT22;26951;47.338;9.196;2024-02-26T03:48:34;5.80;31.20
41220;DHT22;26951;47.338;9.196;2024-02-26T03:51:18;5.90;31.50
41220;DHT22;26951;47.338;9.196;2024-02-26T03:54:02;5.90;31.60
41220;DHT22;26951;47.338;9.196;2024-02-26T03:56:47;5.80;31.40
41220;DHT22;26951;47.338;9.196;2024-02-26T03:59:31;5.80;31.90
41220;DHT22;26951;47.338;9.196;2024-02-26T04:02:16;5.80;32.40
41220;DHT22;26951;47.338;9.196;2024-02-26T04:05:00;5.70;32.30
41220;DHT22;26951;47.338;9.196;2024-02-26T04:07:44;5.70;32.20
41220;DHT22;26951;47.338;9.196;2024-02-26T04:10:28;5.70;32.00
41220;DHT22;26951;47.338;9.196;2024-02-26T04:13:12;5.60;32.50
41220;DHT22;26951;47.338;9.196;2024-02-26T04:15:56;5.60;32.70
41220;DHT22;26951;47.338;9.196;2024-02-26T04:18:42;5.70;34.00
41220;DHT22;26951;47.338;9.196;2024-02-26T04:21:26;5.60;33.80
41220;DHT22;26951;47.338;9.196;2024-02-26T04:24:11;5.50;33.60
41220;DHT22;26951;47.338;9.196;2024-02-26T04:26:55;5.50;33.30
41220;DHT22;26951;47.338;9.196;2024-02-26T04:29:39;5.50;35.80
41220;DHT22;26951;47.338;9.196;2024-02-26T04:32:23;5.50;35.00
41220;DHT22;26951;47.338;9.196;2024-02-26T04:35:07;5.50;35.70
41220;DHT22;26951;47.338;9.196;2024-02-26T04:37:51;5.50;37.60
41220;DHT22;26951;47.338;9.196;2024-02-26T04:40:35;5.40;38.50
41220;DHT22;26951;47.338;9.196;2024-02-26T04:43:19;5.40;38.10
41220;DHT22;26951;47.338;9.196;2024-02-26T04:46:04;5.40;38.60
41220;DHT22;26951;47.338;9.196;2024-02-26T04:48:48;5.30;38.80
41220;DHT22;26951;47.338;9.196;2024-02-26T04:51:32;5.20;38.20
41220;DHT22;26951;47.338;9.196;2024-02-26T04:54:16;5.20;38.50
41220;DHT22;26951;47.338;9.196;2024-02-26T04:57:01;5.20;38.90
41220;DHT22;26951;47.338;9.196;2024-02-26T04:59:45;5.10;37.90
41220;DHT22;26951;47.338;9.196;2024-02-26T05:02:29;5.10;38.70
41220;DHT22;26951;47.338;9.196;2024-02-26T05:05:16;5.00;39.00
41220;DHT22;26951;47.338;9.196;2024-02-26T05:08:00;4.90;38.70
41220;DHT22;26951;47.338;9.196;2024-02-26T05:10:47;4.90;38.50
41220;DHT22;26951;47.338;9.196;2024-02-26T05:13:31;4.80;39.50
41220;DHT22;26951;47.338;9.196;2024-02-26T05:16:15;4.70;40.20
41220;DHT22;26951;47.338;9.196;2024-02-26T05:18:59;4.60;40.10
41220;DHT22;26951;47.338;9.196;2024-02-26T05:21:43;4.60;39.70
41220;DHT22;26951;47.338;9.196;2024-02-26T05:24:28;4.50;39.40
41220;DHT22;26951;47.338;9.196;2024-02-26T05:27:12;4.40;39.20
41220;DHT22;26951;47.338;9.196;2024-02-26T05:29:56;4.30;39.10
41220;DHT22;26951;47.338;9.196;2024-02-26T05:32:40;4.30;38.70
41220;DHT22;26951;47.338;9.196;2024-02-26T05:35:25;4.20;39.10
41220;DHT22;26951;47.338;9.196;2024-02-26T05:38:10;4.00;39.20
41220;DHT22;26951;47.338;9.196;2024-02-26T05:40:54;4.00;39.60
41220;DHT22;26951;47.338;9.196;2024-02-26T05:43:38;3.80;40.40
41220;DHT22;26951;47.338;9.196;2024-02-26T05:46:22;3.70;40.40
41220;DHT22;26951;47.338;9.196;2024-02-26T05:49:06;3.60;40.40
41220;DHT22;26951;47.338;9.196;2024-02-26T05:51:51;3.60;41.10
41220;DHT22;26951;47.338;9.196;2024-02-26T05:54:35;3.40;41.80
41220;DHT22;26951;47.338;9.196;2024-02-26T05:57:19;3.40;42.40
41220;DHT22;26951;47.338;9.196;2024-02-26T06:00:03;3.30;42.30
41220;DHT22;26951;47.338;9.196;2024-02-26T06:02:48;3.30;42.30
41220;DHT22;26951;47.338;9.196;2024-02-26T06:05:32;3.40;42.20
41220;DHT22;26951;47.338;9.196;2024-02-26T06:08:16;3.30;41.60
41220;DHT22;26951;47.338;9.196;2024-02-26T06:11:05;3.30;41.40
41220;DHT22;26951;47.338;9.196;2024-02-26T06:13:50;3.30;41.60
41220;DHT22;26951;47.338;9.196;2024-02-26T06:16:34;3.30;41.50
41220;DHT22;26951;47.338;9.196;2024-02-26T06:19:18;3.30;41.70
41220;DHT22;26951;47.338;9.196;2024-02-26T06:22:02;3.20;42.40
41220;DHT22;26951;47.338;9.196;2024-02-26T06:24:46;3.20;42.40
41220;DHT22;26951;47.338;9.196;2024-02-26T06:27:30;3.10;42.40
41220;DHT22;26951;47.338;9.196;2024-02-26T06:30:14;3.10;42.30
41220;DHT22;26951;47.338;9.196;2024-02-26T06:32:59;3.00;42.90
41220;DHT22;26951;47.338;9.196;2024-02-26T06:35:43;3.00;43.00
41220;DHT22;26951;47.338;9.196;2024-02-26T06:38:27;3.00;43.40
41220;DHT22;26951;47.338;9.196;2024-02-26T06:41:12;3.00;43.20
41220;DHT22;26951;47.338;9.196;2024-02-26T06:43:56;2.90;43.00
41220;DHT22;26951;47.338;9.196;2024-02-26T06:46:40;2.80;42.90
41220;DHT22;26951;47.338;9.196;2024-02-26T06:49:24;2.80;43.30
41220;DHT22;26951;47.338;9.196;2024-02-26T06:52:08;2.70;44.00
41220;DHT22;26951;47.338;9.196;2024-02-26T06:54:52;2.60;44.70
41220;DHT22;26951;47.338;9.196;2024-02-26T06:57:37;2.70;45.20
41220;DHT22;26951;47.338;9.196;2024-02-26T07:00:21;2.60;45.20
41220;DHT22;26951;47.338;9.196;2024-02-26T07:03:05;2.50;46.70
41220;DHT22;26951;47.338;9.196;2024-02-26T07:05:49;2.50;46.60
41220;DHT22;26951;47.338;9.196;2024-02-26T07:08:34;2.50;46.40
41220;DHT22;26951;47.338;9.196;2024-02-26T07:11:18;2.60;46.30
41220;DHT22;26951;47.338;9.196;2024-02-26T07:14:03;2.60;46.90
41220;DHT22;26951;47.338;9.196;2024-02-26T07:16:47;2.70;47.50
41220;DHT22;26951;47.338;9.196;2024-02-26T07:19:32;2.70;47.60
41220;DHT22;26951;47.338;9.196;2024-02-26T07:22:17;2.80;47.80
41220;DHT22;26951;47.338;9.196;2024-02-26T07:25:01;2.80;48.00
41220;DHT22;26951;47.338;9.196;2024-02-26T07:27:45;2.90;49.00
41220;DHT22;26951;47.338;9.196;2024-02-26T07:30:29;3.00;49.60
41220;DHT22;26951;47.338;9.196;2024-02-26T07:33:13;3.10;51.20
41220;DHT22;26951;47.338;9.196;2024-02-26T07:35:57;3.20;51.80
41220;DHT22;26951;47.338;9.196;2024-02-26T07:38:41;3.30;52.90
41220;DHT22;26951;47.338;9.196;2024-02-26T07:41:25;3.50;55.30
41220;DHT22;26951;47.338;9.196;2024-02-26T07:44:09;3.70;56.00
41220;DHT22;26951;47.338;9.196;2024-02-26T07:46:53;3.90;57.20
41220;DHT22;26951;47.338;9.196;2024-02-26T07:49:39;4.20;58.10
41220;DHT22;26951;47.338;9.196;2024-02-26T07:52:23;4.40;55.90
41220;DHT22;26951;47.338;9.196;2024-02-26T07:55:07;4.60;53.80
41220;DHT22;26951;47.338;9.196;2024-02-26T07:57:52;4.80;54.10
41220;DHT22;26951;47.338;9.196;2024-02-26T08:00:36;5.00;53.10
41220;DHT22;26951;47.338;9.196;2024-02-26T08:03:20;5.20;51.50
41220;DHT22;26951;47.338;9.196;2024-02-26T08:06:05;5.30;48.90
41220;DHT22;26951;47.338;9.196;2024-02-26T08:08:49;5.40;49.10
41220;DHT22;26951;47.338;9.196;2024-02-26T08:11:33;5.50;49.40
41220;DHT22;26951;47.338;9.196;2024-02-26T08:14:17;5.50;48.70
41220;DHT22;26951;47.338;9.196;2024-02-26T08:17:01;5.60;48.70
41220;DHT22;26951;47.338;9.196;2024-02-26T08:19:45;5.60;48.60
41220;DHT22;26951;47.338;9.196;2024-02-26T08:22:29;5.70;47.30
41220;DHT22;26951;47.338;9.196;2024-02-26T08:25:13;5.80;46.50
41220;DHT22;26951;47.338;9.196;2024-02-26T08:27:57;5.80;46.30
41220;DHT22;26951;47.338;9.196;2024-02-26T08:30:41;5.90;47.10
41220;DHT22;26951;47.338;9.196;2024-02-26T08:33:25;6.00;47.10
41220;DHT22;26951;47.338;9.196;2024-02-26T08:36:11;6.10;46.30
41220;DHT22;26951;47.338;9.196;2024-02-26T08:38:55;6.30;49.10
41220;DHT22;26951;47.338;9.196;2024-02-26T08:41:39;6.60;48.30
41220;DHT22;26951;47.338;9.196;2024-02-26T08:44:23;6.70;47.10
41220;DHT22;26951;47.338;9.196;2024-02-26T08:47:07;6.90;47.30
41220;DHT22;26951;47.338;9.196;2024-02-26T08:49:51;7.20;47.40
41220;DHT22;26951;47.338;9.196;2024-02-26T08:52:35;7.40;45.70
41220;DHT22;26951;47.338;9.196;2024-02-26T08:55:19;7.70;45.70
41220;DHT22;26951;47.338;9.196;2024-02-26T08:58:03;7.90;43.80
41220;DHT22;26951;47.338;9.196;2024-02-26T09:00:47;8.10;42.00
41220;DHT22;26951;47.338;9.196;2024-02-26T09:03:31;8.30;39.30
41220;DHT22;26951;47.338;9.196;2024-02-26T09:06:15;8.40;41.50
41220;DHT22;26951;47.338;9.196;2024-02-26T09:08:59;8.50;42.40
41220;DHT22;26951;47.338;9.196;2024-02-26T09:11:44;8.50;41.20
41220;DHT22;26951;47.338;9.196;2024-02-26T09:14:28;8.60;40.10
41220;DHT22;26951;47.338;9.196;2024-02-26T09:17:12;8.60;39.90
41220;DHT22;26951;47.338;9.196;2024-02-26T09:19:56;8.60;37.60
41220;DHT22;26951;47.338;9.196;2024-02-26T09:22:40;8.50;36.40
41220;DHT22;26951;47.338;9.196;2024-02-26T09:25:44;8.50;37.90
41220;DHT22;26951;47.338;9.196;2024-02-26T09:28:28;8.40;36.90
41220;DHT22;26951;47.338;9.196;2024-02-26T09:31:17;8.40;36.80
41220;DHT22;26951;47.338;9.196;2024-02-26T09:34:01;8.40;36.70
41220;DHT22;26951;47.338;9.196;2024-02-26T09:36:45;8.30;35.50
41220;DHT22;26951;47.338;9.196;2024-02-26T09:39:30;8.20;34.50
41220;DHT22;26951;47.338;9.196;2024-02-26T09:42:14;8.10;35.70
41220;DHT22;26951;47.338;9.196;2024-02-26T09:45:00;8.00;34.90
41220;DHT22;26951;47.338;9.196;2024-02-26T09:47:48;7.90;36.40
41220;DHT22;26951;47.338;9.196;2024-02-26T09:50:33;7.80;37.70
41220;DHT22;26951;47.338;9.196;2024-02-26T09:53:18;7.80;37.60
41220;DHT22;26951;47.338;9.196;2024-02-26T09:56:07;7.80;38.00
41220;DHT22;26951;47.338;9.196;2024-02-26T09:58:52;7.80;36.70
41220;DHT22;26951;47.338;9.196;2024-02-26T10:01:39;7.80;34.90
41220;DHT22;26951;47.338;9.196;2024-02-26T10:04:25;7.80;33.50
41220;DHT22;26951;47.338;9.196;2024-02-26T10:07:12;7.70;33.60
41220;DHT22;26951;47.338;9.196;2024-02-26T10:09:56;7.70;34.50
41220;DHT22;26951;47.338;9.196;2024-02-26T10:12:40;7.70;35.40
41220;DHT22;26951;47.338;9.196;2024-02-26T10:15:24;7.70;36.80
41220;DHT22;26951;47.338;9.196;2024-02-26T10:18:08;7.80;35.30
41220;DHT22;26951;47.338;9.196;2024-02-26T10:21:00;7.80;36.40
41220;DHT22;26951;47.338;9.196;2024-02-26T10:23:45;7.90;36.20
41220;DHT22;26951;47.338;9.196;2024-02-26T10:26:30;7.90;35.00
41220;DHT22;26951;47.338;9.196;2024-02-26T10:29:14;7.90;35.90
41220;DHT22;26951;47.338;9.196;2024-02-26T10:31:58;7.90;36.30
41220;DHT22;26951;47.338;9.196;2024-02-26T10:34:44;7.90;36.30
41220;DHT22;26951;47.338;9.196;2024-02-26T10:37:29;8.00;35.50
41220;DHT22;26951;47.338;9.196;2024-02-26T10:40:14;8.00;35.30
41220;DHT22;26951;47.338;9.196;2024-02-26T10:42:58;8.00;33.80
41220;DHT22;26951;47.338;9.196;2024-02-26T10:45:43;8.00;34.20
41220;DHT22;26951;47.338;9.196;2024-02-26T10:48:27;8.00;33.30
41220;DHT22;26951;47.338;9.196;2024-02-26T10:51:13;8.10;33.80
41220;DHT22;26951;47.338;9.196;2024-02-26T10:53:59;8.00;34.90
41220;DHT22;26951;47.338;9.196;2024-02-26T10:56:50;7.90;35.60
41220;DHT22;26951;47.338;9.196;2024-02-26T10:59:35;7.90;35.10
41220;DHT22;26951;47.338;9.196;2024-02-26T11:02:20;7.90;35.70
41220;DHT22;26951;47.338;9.196;2024-02-26T11:05:05;7.80;35.90
41220;DHT22;26951;47.338;9.196;2024-02-26T11:07:50;7.80;36.70
41220;DHT22;26951;47.338;9.196;2024-02-26T11:10:36;7.80;37.30
41220;DHT22;26951;47.338;9.196;2024-02-26T11:13:21;7.70;37.50
41220;DHT22;26951;47.338;9.196;2024-02-26T11:16:08;7.70;37.80
41220;DHT22;26951;47.338;9.196;2024-02-26T11:18:53;7.70;38.30
41220;DHT22;26951;47.338;9.196;2024-02-26T11:21:39;7.80;38.00
41220;DHT22;26951;47.338;9.196;2024-02-26T11:24:27;7.80;38.60
41220;DHT22;26951;47.338;9.196;2024-02-26T11:27:12;7.80;39.50
41220;DHT22;26951;47.338;9.196;2024-02-26T11:29:58;7.80;36.70
41220;DHT22;26951;47.338;9.196;2024-02-26T11:32:47;7.80;37.00
41220;DHT22;26951;47.338;9.196;2024-02-26T11:35:31;7.80;38.90
41220;DHT22;26951;47.338;9.196;2024-02-26T11:38:26;7.80;38.80
41220;DHT22;26951;47.338;9.196;2024-02-26T11:41:10;8.00;36.80
41220;DHT22;26951;47.338;9.196;2024-02-26T11:44:01;8.00;36.80
41220;DHT22;26951;47.338;9.196;2024-02-26T11:46:46;8.00;36.40
41220;DHT22;26951;47.338;9.196;2024-02-26T11:49:31;8.00;35.60
41220;DHT22;26951;47.338;9.196;2024-02-26T11:52:16;7.90;35.80
41220;DHT22;26951;47.338;9.196;2024-02-26T11:55:00;7.80;36.20
41220;DHT22;26951;47.338;9.196;2024-02-26T11:57:44;7.80;36.80
41220;DHT22;26951;47.338;9.196;2024-02-26T12:00:28;7.80;37.20
41220;DHT22;26951;47.338;9.196;2024-02-26T12:03:16;7.90;38.70
41220;DHT22;26951;47.338;9.196;2024-02-26T12:06:01;8.00;39.10
41220;DHT22;26951;47.338;9.196;2024-02-26T12:08:45;8.00;39.40
41220;DHT22;26951;47.338;9.196;2024-02-26T12:11:30;8.10;37.30
41220;DHT22;26951;47.338;9.196;2024-02-26T12:14:18;8.10;37.90
41220;DHT22;26951;47.338;9.196;2024-02-26T12:17:03;8.20;38.20
41220;DHT22;26951;47.338;9.196;2024-02-26T12:19:50;8.30;38.50
41220;DHT22;26951;47.338;9.196;2024-02-26T12:22:36;8.30;39.20
41220;DHT22;26951;47.338;9.196;2024-02-26T12:25:28;8.40;39.70
41220;DHT22;26951;47.338;9.196;2024-02-26T12:28:12;8.40;39.90
41220;DHT22;26951;47.338;9.196;2024-02-26T12:30:58;8.50;39.00
41220;DHT22;26951;47.338;9.196;2024-02-26T12:33:43;8.50;39.00
41220;DHT22;26951;47.338;9.196;2024-02-26T12:36:28;8.60;38.90
41220;DHT22;26951;47.338;9.196;2024-02-26T12:39:12;8.60;40.10
41220;DHT22;26951;47.338;9.196;2024-02-26T12:41:57;8.60;40.70
41220;DHT22;26951;47.338;9.196;2024-02-26T12:44:49;8.50;41.00
41220;DHT22;26951;47.338;9.196;2024-02-26T12:47:41;8.60;40.60
41220;DHT22;26951;47.338;9.196;2024-02-26T12:50:26;8.60;40.60
41220;DHT22;26951;47.338;9.196;2024-02-26T12:53:10;8.60;40.30
41220;DHT22;26951;47.338;9.196;2024-02-26T12:55:55;8.70;40.90
41220;DHT22;26951;47.338;9.196;2024-02-26T12:58:40;8.70;41.60
41220;DHT22;26951;47.338;9.196;2024-02-26T13:01:25;8.70;42.80
41220;DHT22;26951;47.338;9.196;2024-02-26T13:04:09;8.80;42.60
41220;DHT22;26951;47.338;9.196;2024-02-26T13:06:54;8.80;42.80
41220;DHT22;26951;47.338;9.196;2024-02-26T13:09:38;8.90;43.20
41220;DHT22;26951;47.338;9.196;2024-02-26T13:12:23;8.90;42.40
41220;DHT22;26951;47.338;9.196;2024-02-26T13:15:07;9.00;42.30
41220;DHT22;26951;47.338;9.196;2024-02-26T13:17:57;9.00;38.70
41220;DHT22;26951;47.338;9.196;2024-02-26T13:20:42;9.00;37.40
41220;DHT22;26951;47.338;9.196;2024-02-26T13:23:26;8.90;38.90
41220;DHT22;26951;47.338;9.196;2024-02-26T13:26:12;8.80;39.50
41220;DHT22;26951;47.338;9.196;2024-02-26T13:29:01;8.80;38.40
41220;DHT22;26951;47.338;9.196;2024-02-26T13:31:47;8.80;38.90
41220;DHT22;26951;47.338;9.196;2024-02-26T13:34:31;8.80;37.90
41220;DHT22;26951;47.338;9.196;2024-02-26T13:37:17;8.80;38.30
41220;DHT22;26951;47.338;9.196;2024-02-26T13:40:04;8.70;39.70
41220;DHT22;26951;47.338;9.196;2024-02-26T13:42:49;8.70;40.70
41220;DHT22;26951;47.338;9.196;2024-02-26T13:45:37;8.60;41.40
41220;DHT22;26951;47.338;9.196;2024-02-26T13:48:22;8.70;41.60
41220;DHT22;26951;47.338;9.196;2024-02-26T13:51:06;8.70;41.90
41220;DHT22;26951;47.338;9.196;2024-02-26T13:53:50;8.70;41.70
41220;DHT22;26951;47.338;9.196;2024-02-26T13:56:35;8.80;42.10
41220;DHT22;26951;47.338;9.196;2024-02-26T13:59:19;8.80;42.20
41220;DHT22;26951;47.338;9.196;2024-02-26T14:02:03;8.90;43.60
41220;DHT22;26951;47.338;9.196;2024-02-26T14:04:48;8.90;44.80
41220;DHT22;26951;47.338;9.196;2024-02-26T14:07:32;8.90;40.20
41220;DHT22;26951;47.338;9.196;2024-02-26T14:10:16;8.90;39.30
41220;DHT22;26951;47.338;9.196;2024-02-26T14:13:00;8.80;39.60
41220;DHT22;26951;47.338;9.196;2024-02-26T14:15:45;8.80;41.00
41220;DHT22;26951;47.338;9.196;2024-02-26T14:18:29;8.80;41.30
41220;DHT22;26951;47.338;9.196;2024-02-26T14:21:13;8.80;42.20
41220;DHT22;26951;47.338;9.196;2024-02-26T14:23:57;8.80;42.50
41220;DHT22;26951;47.338;9.196;2024-02-26T14:26:41;8.80;42.20
41220;DHT22;26951;47.338;9.196;2024-02-26T14:29:25;8.80;43.60
41220;DHT22;26951;47.338;9.196;2024-02-26T14:32:10;8.80;44.90
41220;DHT22;26951;47.338;9.196;2024-02-26T14:34:55;8.80;42.80
41220;DHT22;26951;47.338;9.196;2024-02-26T14:37:40;8.70;40.80
41220;DHT22;26951;47.338;9.196;2024-02-26T14:40:24;8.70;40.70
41220;DHT22;26951;47.338;9.196;2024-02-26T14:43:09;8.60;39.80
41220;DHT22;26951;47.338;9.196;2024-02-26T14:45:54;8.50;39.50
41220;DHT22;26951;47.338;9.196;2024-02-26T14:48:38;8.50;39.30
41220;DHT22;26951;47.338;9.196;2024-02-26T14:51:22;8.50;39.40
41220;DHT22;26951;47.338;9.196;2024-02-26T14:54:07;8.40;40.30
41220;DHT22;26951;47.338;9.196;2024-02-26T14:56:51;8.40;40.50
41220;DHT22;26951;47.338;9.196;2024-02-26T14:59:35;8.40;40.70
41220;DHT22;26951;47.338;9.196;2024-02-26T15:02:20;8.40;41.20
41220;DHT22;26951;47.338;9.196;2024-02-26T15:05:05;8.40;42.30
41220;DHT22;26951;47.338;9.196;2024-02-26T15:07:51;8.40;43.10
41220;DHT22;26951;47.338;9.196;2024-02-26T15:10:35;8.40;42.80
41220;DHT22;26951;47.338;9.196;2024-02-26T15:13:19;8.40;44.00
41220;DHT22;26951;47.338;9.196;2024-02-26T15:16:03;8.40;43.90
41220;DHT22;26951;47.338;9.196;2024-02-26T15:18:47;8.40;44.00
41220;DHT22;26951;47.338;9.196;2024-02-26T15:21:31;8.40;43.30
41220;DHT22;26951;47.338;9.196;2024-02-26T15:24:17;8.40;43.20
41220;DHT22;26951;47.338;9.196;2024-02-26T15:27:01;8.50;44.90
41220;DHT22;26951;47.338;9.196;2024-02-26T15:29:46;8.50;46.10
41220;DHT22;26951;47.338;9.196;2024-02-26T15:32:29;8.50;47.00
41220;DHT22;26951;47.338;9.196;2024-02-26T15:35:14;8.50;46.50
41220;DHT22;26951;47.338;9.196;2024-02-26T15:37:58;8.60;45.70
41220;DHT22;26951;47.338;9.196;2024-02-26T15:40:42;8.50;45.10
41220;DHT22;26951;47.338;9.196;2024-02-26T15:43:26;8.50;44.50
41220;DHT22;26951;47.338;9.196;2024-02-26T15:46:10;8.50;44.50
41220;DHT22;26951;47.338;9.196;2024-02-26T15:48:54;8.50;45.70
41220;DHT22;26951;47.338;9.196;2024-02-26T15:51:38;8.50;46.60
41220;DHT22;26951;47.338;9.196;2024-02-26T15:54:22;8.50;46.50
41220;DHT22;26951;47.338;9.196;2024-02-26T15:57:07;8.40;47.00
41220;DHT22;26951;47.338;9.196;2024-02-26T15:59:53;8.40;46.50
41220;DHT22;26951;47.338;9.196;2024-02-26T16:02:39;8.40;47.50
41220;DHT22;26951;47.338;9.196;2024-02-26T16:05:23;8.40;48.20
41220;DHT22;26951;47.338;9.196;2024-02-26T16:08:19;8.40;48.80
41220;DHT22;26951;47.338;9.196;2024-02-26T16:11:06;8.30;48.90
41220;DHT22;26951;47.338;9.196;2024-02-26T16:13:56;8.20;48.50
41220;DHT22;26951;47.338;9.196;2024-02-26T16:16:48;8.20;48.30
41220;DHT22;26951;47.338;9.196;2024-02-26T16:19:34;8.20;48.70
41220;DHT22;26951;47.338;9.196;2024-02-26T16:22:19;8.10;48.90
41220;DHT22;26951;47.338;9.196;2024-02-26T16:25:04;8.10;48.20
41220;DHT22;26951;47.338;9.196;2024-02-26T16:27:48;8.10;48.20
41220;DHT22;26951;47.338;9.196;2024-02-26T16:30:32;8.10;48.70
41220;DHT22;26951;47.338;9.196;2024-02-26T16:33:16;8.00;48.80
41220;DHT22;26951;47.338;9.196;2024-02-26T16:36:00;8.00;49.30
41220;DHT22;26951;47.338;9.196;2024-02-26T16:38:45;8.00;50.30
41220;DHT22;26951;47.338;9.196;2024-02-26T16:41:29;7.90;50.50
41220;DHT22;26951;47.338;9.196;2024-02-26T16:44:13;7.90;50.30
41220;DHT22;26951;47.338;9.196;2024-02-26T16:46:57;7.80;50.50
41220;DHT22;26951;47.338;9.196;2024-02-26T16:49:41;7.80;50.60
41220;DHT22;26951;47.338;9.196;2024-02-26T16:52:26;7.70;50.40
41220;DHT22;26951;47.338;9.196;2024-02-26T16:55:10;7.70;50.40
41220;DHT22;26951;47.338;9.196;2024-02-26T16:57:57;7.60;50.60
41220;DHT22;26951;47.338;9.196;2024-02-26T17:00:41;7.60;51.40
41220;DHT22;26951;47.338;9.196;2024-02-26T17:03:25;7.60;51.20
41220;DHT22;26951;47.338;9.196;2024-02-26T17:06:09;7.50;51.00
41220;DHT22;26951;47.338;9.196;2024-02-26T17:08:53;7.50;51.50
41220;DHT22;26951;47.338;9.196;2024-02-26T17:11:37;7.50;51.60
41220;DHT22;26951;47.338;9.196;2024-02-26T17:14:23;7.40;51.80
41220;DHT22;26951;47.338;9.196;2024-02-26T17:17:07;7.40;51.70
41220;DHT22;26951;47.338;9.196;2024-02-26T17:19:51;7.30;50.70
41220;DHT22;26951;47.338;9.196;2024-02-26T17:22:35;7.30;50.80
41220;DHT22;26951;47.338;9.196;2024-02-26T17:25:19;7.30;51.20
41220;DHT22;26951;47.338;9.196;2024-02-26T17:28:03;7.20;51.20
41220;DHT22;26951;47.338;9.196;2024-02-26T17:30:47;7.20;51.40
41220;DHT22;26951;47.338;9.196;2024-02-26T17:33:31;7.10;51.70
41220;DHT22;26951;47.338;9.196;2024-02-26T17:36:16;7.10;51.10
41220;DHT22;26951;47.338;9.196;2024-02-26T17:39:00;6.90;51.90